Alexandria, Minnesota
Current Conditions -  °F | °C
As of 7:53 PM on Friday 24 Oct 2014 (Local Time) from KAXN Reporting Station
Clear Clear  
Wind Chill: 16°   Ceiling: Unl
Heat Index: 16°   Visibility: 10mi
Dew Point:   Wind: 9mph
Humidity: 52%   Direction: 260°W
Pressure: 29.86"   Gusts: NA
Location:  45.89°N, 95.37°W
Report Text: KAXN 250053Z AUTO 26008KT 10SM CLR 16/06 A2986 RMK AO2 SLP118 T01610061
Loading
Personal Weather Stations






























Interactive Weather Map
Tropical Storm Tracking
New forecast layout! Learn more

10-Day Weather Forecast

Advertisements
Track Severe Weather on mobile